Etusivu
METAR-TAF:

METAR-TAF

Lentoasemat :

Maltan kansainvälinen lentoasema

Malta, Malta

Leveyspiiri: 35-51N, Pituuspiiri: 014-29E, korkeus merenpinnasta: 91 m

Tämänhetkinen sää

Tämä raportti tehtiin 1 tunti ja 39 minuuttia sitten, kello 03.45 UTC
Tuuli 5 kn idästä
Lämpötila 14°C
Kosteus 77%
Ilmanpaine 1020 hPa
Näkyvyys 10 km tai enemmän
Muutamia pilviä 3700 ft:n korkeudessa

METAR: LMML 270345Z 08005KT 9999 FEW037 14/10 Q1020 NOSIG

Aika: 06:24 (05:24 UTC)

Sääennuste

Tämä raportti tehtiin 6 tuntia ja 24 minuuttia sitten, kello 23.00 UTC
Ennuste voimassa 27. päivästä klo 00 UTC - 27. päivään klo 24 UTC
Tuuli 12 kn idästä/kaakosta
Näkyvyys 10 km tai enemmän
Muutamia pilviä 2500 ft:n korkeudessa

TAF: LMML 262300Z 2700/2724 11012KT 9999 FEW025

Säähavainnot ja -ennusteet yli 4000 lentoasemalta (METAR- ja TAF-raportit).

Käytössä olevat sääasemat on merkitty karttaan keltaisilla ja punaisilla pisteillä.

Aseta hiiri pisteen päälle nähdäksesi sääaseman nimen.

Klikkaa sitten nähdäksesi säähavainnot ja -ennusteet.

Kartan vaihtaminen: klikkaa mustalla rastilla varustettuja vihreitä pisteitä, niin voit zoomata sisään; viivalla varustettua vihreää pistettä, niin voit zoomata ulos tai vihreitä nuolia, niin pääset viereisille kartoille.


METAR-TAF: